sensor_id;sensor_type;location;lat;lon;timestamp;P1;durP1;ratioP1;P2;durP2;ratioP2
16147;SDS011;8179;59.364;18.018;2023-07-30T00:00:58;738.90;;;701.78;;
16147;SDS011;8179;59.364;18.018;2023-07-30T00:03:25;765.42;;;725.78;;
16147;SDS011;8179;59.364;18.018;2023-07-30T00:05:52;762.55;;;723.45;;
16147;SDS011;8179;59.364;18.018;2023-07-30T00:08:19;757.05;;;718.03;;
16147;SDS011;8179;59.364;18.018;2023-07-30T00:10:45;660.58;;;629.72;;
16147;SDS011;8179;59.364;18.018;2023-07-30T00:13:12;798.35;;;754.17;;
16147;SDS011;8179;59.364;18.018;2023-07-30T00:15:38;749.15;;;711.50;;
16147;SDS011;8179;59.364;18.018;2023-07-30T00:18:06;760.85;;;722.60;;
16147;SDS011;8179;59.364;18.018;2023-07-30T00:20:33;826.47;;;781.92;;
16147;SDS011;8179;59.364;18.018;2023-07-30T00:23:00;686.08;;;651.22;;
16147;SDS011;8179;59.364;18.018;2023-07-30T00:25:26;830.33;;;783.08;;
16147;SDS011;8179;59.364;18.018;2023-07-30T00:27:53;765.78;;;725.63;;
16147;SDS011;8179;59.364;18.018;2023-07-30T00:30:19;718.90;;;683.55;;
16147;SDS011;8179;59.364;18.018;2023-07-30T00:32:46;689.60;;;656.30;;
16147;SDS011;8179;59.364;18.018;2023-07-30T00:35:14;707.92;;;674.08;;
16147;SDS011;8179;59.364;18.018;2023-07-30T00:37:40;730.63;;;694.03;;
16147;SDS011;8179;59.364;18.018;2023-07-30T00:40:07;759.92;;;721.50;;
16147;SDS011;8179;59.364;18.018;2023-07-30T00:42:34;724.38;;;688.65;;
16147;SDS011;8179;59.364;18.018;2023-07-30T00:45:00;662.80;;;632.05;;
16147;SDS011;8179;59.364;18.018;2023-07-30T00:47:28;588.63;;;563.95;;
16147;SDS011;8179;59.364;18.018;2023-07-30T00:49:55;549.88;;;527.75;;
16147;SDS011;8179;59.364;18.018;2023-07-30T00:52:22;573.03;;;549.42;;
16147;SDS011;8179;59.364;18.018;2023-07-30T00:54:49;588.85;;;563.90;;
16147;SDS011;8179;59.364;18.018;2023-07-30T00:57:17;591.90;;;566.72;;
16147;SDS011;8179;59.364;18.018;2023-07-30T00:59:44;558.45;;;535.63;;
16147;SDS011;8179;59.364;18.018;2023-07-30T01:02:11;567.42;;;543.05;;
16147;SDS011;8179;59.364;18.018;2023-07-30T01:04:38;552.03;;;529.33;;
16147;SDS011;8179;59.364;18.018;2023-07-30T01:07:05;527.75;;;506.88;;
16147;SDS011;8179;59.364;18.018;2023-07-30T01:09:33;528.92;;;507.25;;
16147;SDS011;8179;59.364;18.018;2023-07-30T01:12:00;536.35;;;513.25;;
16147;SDS011;8179;59.364;18.018;2023-07-30T01:14:27;530.17;;;508.80;;
16147;SDS011;8179;59.364;18.018;2023-07-30T01:16:54;531.78;;;510.90;;
16147;SDS011;8179;59.364;18.018;2023-07-30T01:19:21;527.58;;;505.90;;
16147;SDS011;8179;59.364;18.018;2023-07-30T01:21:49;569.80;;;545.63;;
16147;SDS011;8179;59.364;18.018;2023-07-30T01:24:16;575.15;;;550.83;;
16147;SDS011;8179;59.364;18.018;2023-07-30T01:26:43;623.38;;;594.75;;
16147;SDS011;8179;59.364;18.018;2023-07-30T01:29:10;681.47;;;648.63;;
16147;SDS011;8179;59.364;18.018;2023-07-30T01:31:38;723.40;;;687.10;;
16147;SDS011;8179;59.364;18.018;2023-07-30T01:34:06;768.63;;;729.72;;
16147;SDS011;8179;59.364;18.018;2023-07-30T01:36:33;840.22;;;796.05;;
16147;SDS011;8179;59.364;18.018;2023-07-30T01:39:02;807.50;;;765.95;;
16147;SDS011;8179;59.364;18.018;2023-07-30T01:41:29;831.53;;;787.90;;
16147;SDS011;8179;59.364;18.018;2023-07-30T01:43:55;812.88;;;770.35;;
16147;SDS011;8179;59.364;18.018;2023-07-30T01:46:22;837.58;;;792.90;;
16147;SDS011;8179;59.364;18.018;2023-07-30T01:48:49;766.78;;;728.53;;
16147;SDS011;8179;59.364;18.018;2023-07-30T01:51:15;791.40;;;751.45;;
16147;SDS011;8179;59.364;18.018;2023-07-30T01:53:42;773.00;;;734.25;;
16147;SDS011;8179;59.364;18.018;2023-07-30T01:56:10;765.78;;;727.70;;
16147;SDS011;8179;59.364;18.018;2023-07-30T01:58:36;1999.90;;;999.90;;
16147;SDS011;8179;59.364;18.018;2023-07-30T02:01:03;1999.90;;;999.90;;
16147;SDS011;8179;59.364;18.018;2023-07-30T02:03:29;1999.90;;;999.90;;
16147;SDS011;8179;59.364;18.018;2023-07-30T02:05:56;790.55;;;750.85;;
16147;SDS011;8179;59.364;18.018;2023-07-30T02:08:22;740.72;;;705.28;;
16147;SDS011;8179;59.364;18.018;2023-07-30T02:10:54;759.42;;;722.00;;
16147;SDS011;8179;59.364;18.018;2023-07-30T02:13:22;823.00;;;781.08;;
16147;SDS011;8179;59.364;18.018;2023-07-30T02:15:48;795.78;;;755.05;;
16147;SDS011;8179;59.364;18.018;2023-07-30T02:18:15;852.63;;;806.97;;
16147;SDS011;8179;59.364;18.018;2023-07-30T02:20:41;819.58;;;776.38;;
16147;SDS011;8179;59.364;18.018;2023-07-30T02:23:08;828.25;;;784.38;;
16147;SDS011;8179;59.364;18.018;2023-07-30T02:25:35;889.35;;;839.97;;
16147;SDS011;8179;59.364;18.018;2023-07-30T02:28:01;857.78;;;811.90;;
16147;SDS011;8179;59.364;18.018;2023-07-30T02:30:29;903.78;;;853.97;;
16147;SDS011;8179;59.364;18.018;2023-07-30T02:32:55;943.65;;;889.13;;
16147;SDS011;8179;59.364;18.018;2023-07-30T02:35:22;934.90;;;882.97;;
16147;SDS011;8179;59.364;18.018;2023-07-30T02:37:49;862.70;;;816.78;;
16147;SDS011;8179;59.364;18.018;2023-07-30T02:40:15;837.95;;;793.45;;
16147;SDS011;8179;59.364;18.018;2023-07-30T02:42:42;835.88;;;791.65;;
16147;SDS011;8179;59.364;18.018;2023-07-30T02:45:09;838.53;;;794.10;;
16147;SDS011;8179;59.364;18.018;2023-07-30T02:47:37;838.15;;;794.00;;
16147;SDS011;8179;59.364;18.018;2023-07-30T02:50:04;876.63;;;830.05;;
16147;SDS011;8179;59.364;18.018;2023-07-30T02:52:32;871.40;;;824.72;;
16147;SDS011;8179;59.364;18.018;2023-07-30T02:54:58;859.03;;;813.75;;
16147;SDS011;8179;59.364;18.018;2023-07-30T02:57:25;831.97;;;788.53;;
16147;SDS011;8179;59.364;18.018;2023-07-30T02:59:51;832.75;;;788.70;;
16147;SDS011;8179;59.364;18.018;2023-07-30T03:02:18;820.20;;;777.55;;
16147;SDS011;8179;59.364;18.018;2023-07-30T03:04:46;900.15;;;851.13;;
16147;SDS011;8179;59.364;18.018;2023-07-30T03:07:12;872.17;;;825.78;;
16147;SDS011;8179;59.364;18.018;2023-07-30T03:09:39;812.55;;;771.38;;
16147;SDS011;8179;59.364;18.018;2023-07-30T03:12:05;888.60;;;841.35;;
16147;SDS011;8179;59.364;18.018;2023-07-30T03:14:32;856.67;;;811.22;;
16147;SDS011;8179;59.364;18.018;2023-07-30T03:16:58;891.58;;;843.55;;
16147;SDS011;8179;59.364;18.018;2023-07-30T03:19:25;882.53;;;835.45;;
16147;SDS011;8179;59.364;18.018;2023-07-30T03:21:53;887.63;;;839.70;;
16147;SDS011;8179;59.364;18.018;2023-07-30T03:24:19;916.80;;;866.30;;
16147;SDS011;8179;59.364;18.018;2023-07-30T03:26:46;893.17;;;845.38;;
16147;SDS011;8179;59.364;18.018;2023-07-30T03:29:12;926.15;;;875.15;;
16147;SDS011;8179;59.364;18.018;2023-07-30T03:31:39;922.78;;;871.50;;
16147;SDS011;8179;59.364;18.018;2023-07-30T03:34:05;881.30;;;834.45;;
16147;SDS011;8179;59.364;18.018;2023-07-30T03:36:32;872.60;;;826.05;;
16147;SDS011;8179;59.364;18.018;2023-07-30T03:39:00;842.95;;;799.38;;
16147;SDS011;8179;59.364;18.018;2023-07-30T03:41:26;897.53;;;849.17;;
16147;SDS011;8179;59.364;18.018;2023-07-30T03:43:53;932.42;;;881.38;;
16147;SDS011;8179;59.364;18.018;2023-07-30T03:46:19;951.28;;;897.55;;
16147;SDS011;8179;59.364;18.018;2023-07-30T03:48:46;907.25;;;857.72;;
16147;SDS011;8179;59.364;18.018;2023-07-30T03:51:12;857.58;;;812.65;;
16147;SDS011;8179;59.364;18.018;2023-07-30T03:53:39;914.90;;;865.03;;
16147;SDS011;8179;59.364;18.018;2023-07-30T03:56:09;854.50;;;809.17;;
16147;SDS011;8179;59.364;18.018;2023-07-30T03:58:36;904.85;;;856.63;;
16147;SDS011;8179;59.364;18.018;2023-07-30T04:01:02;912.53;;;862.95;;
16147;SDS011;8179;59.364;18.018;2023-07-30T04:03:29;889.08;;;841.35;;
16147;SDS011;8179;59.364;18.018;2023-07-30T04:05:55;874.22;;;827.05;;
16147;SDS011;8179;59.364;18.018;2023-07-30T04:08:22;910.92;;;861.38;;
16147;SDS011;8179;59.364;18.018;2023-07-30T04:10:48;938.85;;;887.13;;
16147;SDS011;8179;59.364;18.018;2023-07-30T04:13:16;899.42;;;851.17;;
16147;SDS011;8179;59.364;18.018;2023-07-30T04:15:43;886.78;;;839.03;;
16147;SDS011;8179;59.364;18.018;2023-07-30T04:18:09;928.90;;;877.75;;
16147;SDS011;8179;59.364;18.018;2023-07-30T04:20:36;903.13;;;853.58;;
16147;SDS011;8179;59.364;18.018;2023-07-30T04:23:02;932.58;;;881.40;;
16147;SDS011;8179;59.364;18.018;2023-07-30T04:25:29;908.22;;;858.55;;
16147;SDS011;8179;59.364;18.018;2023-07-30T04:27:55;938.88;;;886.30;;
16147;SDS011;8179;59.364;18.018;2023-07-30T04:30:23;934.53;;;882.53;;
16147;SDS011;8179;59.364;18.018;2023-07-30T04:32:50;945.67;;;892.08;;
16147;SDS011;8179;59.364;18.018;2023-07-30T04:35:16;949.13;;;895.60;;
16147;SDS011;8179;59.364;18.018;2023-07-30T04:37:43;927.70;;;875.83;;
16147;SDS011;8179;59.364;18.018;2023-07-30T04:40:09;953.90;;;900.42;;
16147;SDS011;8179;59.364;18.018;2023-07-30T04:42:36;923.97;;;872.95;;
16147;SDS011;8179;59.364;18.018;2023-07-30T04:45:03;930.28;;;878.70;;
16147;SDS011;8179;59.364;18.018;2023-07-30T04:47:31;928.75;;;877.25;;
16147;SDS011;8179;59.364;18.018;2023-07-30T04:49:57;920.83;;;870.22;;
16147;SDS011;8179;59.364;18.018;2023-07-30T04:52:24;933.97;;;881.97;;
16147;SDS011;8179;59.364;18.018;2023-07-30T04:54:50;1065.35;;;995.70;;
16147;SDS011;8179;59.364;18.018;2023-07-30T04:57:17;943.92;;;890.70;;
16147;SDS011;8179;59.364;18.018;2023-07-30T04:59:43;918.90;;;868.22;;
16147;SDS011;8179;59.364;18.018;2023-07-30T05:02:10;918.45;;;867.67;;
16147;SDS011;8179;59.364;18.018;2023-07-30T05:04:38;917.53;;;866.50;;
16147;SDS011;8179;59.364;18.018;2023-07-30T05:07:04;920.05;;;869.83;;
16147;SDS011;8179;59.364;18.018;2023-07-30T05:09:31;905.97;;;856.53;;
16147;SDS011;8179;59.364;18.018;2023-07-30T05:11:57;833.85;;;790.55;;
16147;SDS011;8179;59.364;18.018;2023-07-30T05:14:24;935.55;;;884.13;;
16147;SDS011;8179;59.364;18.018;2023-07-30T05:16:50;908.53;;;859.65;;
16147;SDS011;8179;59.364;18.018;2023-07-30T05:19:17;926.25;;;875.22;;
16147;SDS011;8179;59.364;18.018;2023-07-30T05:21:45;912.80;;;863.05;;
16147;SDS011;8179;59.364;18.018;2023-07-30T05:24:11;938.00;;;886.22;;
16147;SDS011;8179;59.364;18.018;2023-07-30T05:26:38;930.50;;;879.25;;
16147;SDS011;8179;59.364;18.018;2023-07-30T05:29:04;909.60;;;859.88;;
16147;SDS011;8179;59.364;18.018;2023-07-30T05:31:31;914.88;;;865.28;;
16147;SDS011;8179;59.364;18.018;2023-07-30T05:33:57;884.47;;;836.85;;
16147;SDS011;8179;59.364;18.018;2023-07-30T05:36:24;894.15;;;845.60;;
16147;SDS011;8179;59.364;18.018;2023-07-30T05:38:52;918.10;;;867.78;;
16147;SDS011;8179;59.364;18.018;2023-07-30T05:41:18;907.45;;;858.42;;
16147;SDS011;8179;59.364;18.018;2023-07-30T05:43:46;967.47;;;912.63;;
16147;SDS011;8179;59.364;18.018;2023-07-30T05:46:12;984.00;;;927.60;;
16147;SDS011;8179;59.364;18.018;2023-07-30T05:48:39;896.58;;;847.50;;
16147;SDS011;8179;59.364;18.018;2023-07-30T05:51:05;921.47;;;870.60;;
16147;SDS011;8179;59.364;18.018;2023-07-30T05:53:35;879.00;;;831.25;;
16147;SDS011;8179;59.364;18.018;2023-07-30T05:56:03;899.97;;;851.10;;
16147;SDS011;8179;59.364;18.018;2023-07-30T05:58:29;862.60;;;816.58;;
16147;SDS011;8179;59.364;18.018;2023-07-30T06:00:56;895.38;;;846.85;;
16147;SDS011;8179;59.364;18.018;2023-07-30T06:03:22;821.25;;;778.67;;
16147;SDS011;8179;59.364;18.018;2023-07-30T06:05:49;907.13;;;857.75;;
16147;SDS011;8179;59.364;18.018;2023-07-30T06:08:15;903.72;;;854.03;;
16147;SDS011;8179;59.364;18.018;2023-07-30T06:10:42;920.65;;;869.50;;
16147;SDS011;8179;59.364;18.018;2023-07-30T06:13:09;869.30;;;822.90;;
16147;SDS011;8179;59.364;18.018;2023-07-30T06:15:36;755.35;;;718.63;;
16147;SDS011;8179;59.364;18.018;2023-07-30T06:18:03;827.42;;;783.00;;
16147;SDS011;8179;59.364;18.018;2023-07-30T06:20:29;815.75;;;773.60;;
16147;SDS011;8179;59.364;18.018;2023-07-30T06:22:56;803.03;;;761.63;;
16147;SDS011;8179;59.364;18.018;2023-07-30T06:25:22;880.60;;;832.67;;
16147;SDS011;8179;59.364;18.018;2023-07-30T06:27:49;907.88;;;857.03;;
16147;SDS011;8179;59.364;18.018;2023-07-30T06:30:17;974.90;;;918.63;;
16147;SDS011;8179;59.364;18.018;2023-07-30T06:32:44;966.38;;;910.75;;
16147;SDS011;8179;59.364;18.018;2023-07-30T06:35:10;963.78;;;908.13;;
16147;SDS011;8179;59.364;18.018;2023-07-30T06:37:37;990.22;;;929.97;;
16147;SDS011;8179;59.364;18.018;2023-07-30T06:40:04;957.42;;;902.03;;
16147;SDS011;8179;59.364;18.018;2023-07-30T06:42:31;886.72;;;837.83;;
16147;SDS011;8179;59.364;18.018;2023-07-30T06:44:58;873.28;;;826.67;;
16147;SDS011;8179;59.364;18.018;2023-07-30T06:47:25;898.38;;;849.35;;
16147;SDS011;8179;59.364;18.018;2023-07-30T06:49:52;913.10;;;863.00;;
16147;SDS011;8179;59.364;18.018;2023-07-30T06:52:19;913.70;;;862.65;;
16147;SDS011;8179;59.364;18.018;2023-07-30T06:54:45;900.00;;;850.65;;
16147;SDS011;8179;59.364;18.018;2023-07-30T06:57:12;994.67;;;935.97;;
16147;SDS011;8179;59.364;18.018;2023-07-30T06:59:38;1051.60;;;985.13;;
16147;SDS011;8179;59.364;18.018;2023-07-30T07:02:05;987.20;;;928.45;;
16147;SDS011;8179;59.364;18.018;2023-07-30T07:04:33;878.63;;;831.05;;
16147;SDS011;8179;59.364;18.018;2023-07-30T07:06:59;974.58;;;917.58;;
16147;SDS011;8179;59.364;18.018;2023-07-30T07:09:28;974.42;;;916.88;;
16147;SDS011;8179;59.364;18.018;2023-07-30T07:11:55;995.50;;;937.00;;
16147;SDS011;8179;59.364;18.018;2023-07-30T07:14:21;975.65;;;917.90;;
16147;SDS011;8179;59.364;18.018;2023-07-30T07:16:48;992.90;;;932.88;;
16147;SDS011;8179;59.364;18.018;2023-07-30T07:19:14;964.28;;;907.65;;
16147;SDS011;8179;59.364;18.018;2023-07-30T07:21:42;896.28;;;846.58;;
16147;SDS011;8179;59.364;18.018;2023-07-30T07:24:09;1017.40;;;954.55;;
16147;SDS011;8179;59.364;18.018;2023-07-30T07:26:35;981.13;;;922.75;;
16147;SDS011;8179;59.364;18.018;2023-07-30T07:29:01;921.85;;;870.65;;
16147;SDS011;8179;59.364;18.018;2023-07-30T07:31:27;1018.88;;;956.80;;
16147;SDS011;8179;59.364;18.018;2023-07-30T07:33:54;1056.10;;;989.47;;
16147;SDS011;8179;59.364;18.018;2023-07-30T07:36:20;1018.67;;;957.08;;
16147;SDS011;8179;59.364;18.018;2023-07-30T07:38:48;910.17;;;858.75;;
16147;SDS011;8179;59.364;18.018;2023-07-30T07:41:15;855.70;;;809.25;;
16147;SDS011;8179;59.364;18.018;2023-07-30T07:43:45;1030.70;;;966.67;;
16147;SDS011;8179;59.364;18.018;2023-07-30T07:46:12;1013.63;;;951.90;;
16147;SDS011;8179;59.364;18.018;2023-07-30T07:48:40;972.63;;;915.92;;
16147;SDS011;8179;59.364;18.018;2023-07-30T07:51:06;906.88;;;856.53;;
16147;SDS011;8179;59.364;18.018;2023-07-30T07:53:33;980.70;;;922.55;;
16147;SDS011;8179;59.364;18.018;2023-07-30T07:56:01;844.67;;;799.42;;
16147;SDS011;8179;59.364;18.018;2023-07-30T07:58:27;845.75;;;800.00;;
16147;SDS011;8179;59.364;18.018;2023-07-30T08:00:55;900.47;;;850.72;;
16147;SDS011;8179;59.364;18.018;2023-07-30T08:03:21;880.35;;;832.63;;
16147;SDS011;8179;59.364;18.018;2023-07-30T08:05:48;770.72;;;732.22;;
16147;SDS011;8179;59.364;18.018;2023-07-30T08:08:14;798.28;;;757.67;;
16147;SDS011;8179;59.364;18.018;2023-07-30T08:10:41;856.63;;;810.53;;
16147;SDS011;8179;59.364;18.018;2023-07-30T08:13:12;864.13;;;817.95;;
16147;SDS011;8179;59.364;18.018;2023-07-30T08:15:39;878.17;;;830.03;;
16147;SDS011;8179;59.364;18.018;2023-07-30T08:18:06;887.25;;;838.33;;
16147;SDS011;8179;59.364;18.018;2023-07-30T08:20:32;891.72;;;842.47;;
16147;SDS011;8179;59.364;18.018;2023-07-30T08:22:59;844.88;;;799.45;;
16147;SDS011;8179;59.364;18.018;2023-07-30T08:25:25;953.38;;;897.58;;
16147;SDS011;8179;59.364;18.018;2023-07-30T08:27:52;944.42;;;888.80;;
16147;SDS011;8179;59.364;18.018;2023-07-30T08:30:20;999.75;;;939.80;;
16147;SDS011;8179;59.364;18.018;2023-07-30T08:32:47;831.97;;;786.88;;
16147;SDS011;8179;59.364;18.018;2023-07-30T08:35:13;956.95;;;901.33;;
16147;SDS011;8179;59.364;18.018;2023-07-30T08:37:39;820.50;;;777.28;;
16147;SDS011;8179;59.364;18.018;2023-07-30T08:40:07;930.65;;;876.83;;
16147;SDS011;8179;59.364;18.018;2023-07-30T08:42:33;983.95;;;921.50;;
16147;SDS011;8179;59.364;18.018;2023-07-30T08:45:00;1038.75;;;971.53;;
16147;SDS011;8179;59.364;18.018;2023-07-30T08:47:28;1015.03;;;952.38;;
16147;SDS011;8179;59.364;18.018;2023-07-30T08:49:55;996.03;;;935.33;;
16147;SDS011;8179;59.364;18.018;2023-07-30T08:52:22;906.78;;;855.35;;
16147;SDS011;8179;59.364;18.018;2023-07-30T08:54:50;784.97;;;744.45;;
16147;SDS011;8179;59.364;18.018;2023-07-30T08:57:17;690.58;;;657.47;;
16147;SDS011;8179;59.364;18.018;2023-07-30T08:59:46;808.97;;;766.72;;
16147;SDS011;8179;59.364;18.018;2023-07-30T09:02:17;607.58;;;581.30;;
16147;SDS011;8179;59.364;18.018;2023-07-30T09:04:46;646.40;;;617.10;;
16147;SDS011;8179;59.364;18.018;2023-07-30T09:07:14;767.17;;;727.38;;
16147;SDS011;8179;59.364;18.018;2023-07-30T09:09:40;690.63;;;657.65;;
16147;SDS011;8179;59.364;18.018;2023-07-30T09:12:12;674.67;;;642.13;;
16147;SDS011;8179;59.364;18.018;2023-07-30T09:14:39;736.42;;;700.22;;
16147;SDS011;8179;59.364;18.018;2023-07-30T09:17:05;643.92;;;615.08;;
16147;SDS011;8179;59.364;18.018;2023-07-30T09:19:34;632.28;;;604.47;;
16147;SDS011;8179;59.364;18.018;2023-07-30T09:22:05;685.20;;;651.63;;
16147;SDS011;8179;59.364;18.018;2023-07-30T09:24:31;756.22;;;718.20;;
16147;SDS011;8179;59.364;18.018;2023-07-30T09:26:58;711.75;;;677.30;;
16147;SDS011;8179;59.364;18.018;2023-07-30T09:29:27;598.13;;;573.00;;
16147;SDS011;8179;59.364;18.018;2023-07-30T09:31:54;753.53;;;715.10;;
16147;SDS011;8179;59.364;18.018;2023-07-30T09:34:21;702.95;;;668.90;;
16147;SDS011;8179;59.364;18.018;2023-07-30T09:36:49;652.45;;;623.00;;
16147;SDS011;8179;59.364;18.018;2023-07-30T09:39:18;767.03;;;728.33;;
16147;SDS011;8179;59.364;18.018;2023-07-30T09:41:45;719.38;;;684.38;;
16147;SDS011;8179;59.364;18.018;2023-07-30T09:44:12;604.35;;;578.85;;
16147;SDS011;8179;59.364;18.018;2023-07-30T09:46:43;697.95;;;664.65;;
16147;SDS011;8179;59.364;18.018;2023-07-30T09:49:10;623.20;;;595.97;;
16147;SDS011;8179;59.364;18.018;2023-07-30T09:51:36;651.28;;;622.00;;
16147;SDS011;8179;59.364;18.018;2023-07-30T09:54:03;561.50;;;538.58;;
16147;SDS011;8179;59.364;18.018;2023-07-30T09:56:31;697.40;;;664.25;;
16147;SDS011;8179;59.364;18.018;2023-07-30T09:58:57;640.28;;;611.10;;
16147;SDS011;8179;59.364;18.018;2023-07-30T10:01:24;742.17;;;704.88;;
16147;SDS011;8179;59.364;18.018;2023-07-30T10:03:52;761.13;;;721.65;;
16147;SDS011;8179;59.364;18.018;2023-07-30T10:06:20;678.67;;;645.97;;
16147;SDS011;8179;59.364;18.018;2023-07-30T10:08:48;760.20;;;718.65;;
16147;SDS011;8179;59.364;18.018;2023-07-30T10:11:15;753.60;;;715.08;;
16147;SDS011;8179;59.364;18.018;2023-07-30T10:13:44;742.08;;;703.53;;
16147;SDS011;8179;59.364;18.018;2023-07-30T10:16:10;845.53;;;799.35;;
16147;SDS011;8179;59.364;18.018;2023-07-30T10:18:38;805.28;;;761.75;;
16147;SDS011;8179;59.364;18.018;2023-07-30T10:21:04;646.95;;;617.90;;
16147;SDS011;8179;59.364;18.018;2023-07-30T10:23:33;749.13;;;711.50;;
16147;SDS011;8179;59.364;18.018;2023-07-30T10:26:00;678.10;;;646.90;;
16147;SDS011;8179;59.364;18.018;2023-07-30T10:28:34;696.28;;;663.20;;
16147;SDS011;8179;59.364;18.018;2023-07-30T10:31:06;627.67;;;600.25;;
16147;SDS011;8179;59.364;18.018;2023-07-30T10:33:43;633.78;;;605.70;;
16147;SDS011;8179;59.364;18.018;2023-07-30T10:36:10;632.60;;;604.20;;
16147;SDS011;8179;59.364;18.018;2023-07-30T10:38:36;611.13;;;584.67;;
16147;SDS011;8179;59.364;18.018;2023-07-30T10:41:04;658.42;;;628.50;;
16147;SDS011;8179;59.364;18.018;2023-07-30T10:43:33;683.80;;;650.90;;
16147;SDS011;8179;59.364;18.018;2023-07-30T10:46:00;621.90;;;594.67;;
16147;SDS011;8179;59.364;18.018;2023-07-30T10:48:32;569.15;;;546.22;;
16147;SDS011;8179;59.364;18.018;2023-07-30T10:50:59;578.47;;;554.55;;
16147;SDS011;8179;59.364;18.018;2023-07-30T10:53:25;635.80;;;607.20;;
16147;SDS011;8179;59.364;18.018;2023-07-30T10:55:52;581.65;;;555.78;;
16147;SDS011;8179;59.364;18.018;2023-07-30T10:58:19;586.85;;;561.88;;
16147;SDS011;8179;59.364;18.018;2023-07-30T11:00:46;666.72;;;635.60;;
16147;SDS011;8179;59.364;18.018;2023-07-30T11:03:14;599.55;;;573.38;;
16147;SDS011;8179;59.364;18.018;2023-07-30T11:05:45;667.00;;;636.03;;
16147;SDS011;8179;59.364;18.018;2023-07-30T11:08:12;630.20;;;602.50;;
16147;SDS011;8179;59.364;18.018;2023-07-30T11:10:42;542.53;;;519.45;;
16147;SDS011;8179;59.364;18.018;2023-07-30T11:13:09;546.30;;;523.53;;
16147;SDS011;8179;59.364;18.018;2023-07-30T11:15:40;558.42;;;535.35;;
16147;SDS011;8179;59.364;18.018;2023-07-30T11:18:06;653.55;;;623.22;;
16147;SDS011;8179;59.364;18.018;2023-07-30T11:20:33;619.88;;;590.28;;
16147;SDS011;8179;59.364;18.018;2023-07-30T11:23:03;655.90;;;625.70;;
16147;SDS011;8179;59.364;18.018;2023-07-30T11:25:45;587.97;;;563.28;;
16147;SDS011;8179;59.364;18.018;2023-07-30T11:28:11;603.05;;;576.92;;
16147;SDS011;8179;59.364;18.018;2023-07-30T11:30:41;669.30;;;637.95;;
16147;SDS011;8179;59.364;18.018;2023-07-30T11:33:08;590.83;;;564.53;;
16147;SDS011;8179;59.364;18.018;2023-07-30T11:35:40;499.13;;;480.10;;
16147;SDS011;8179;59.364;18.018;2023-07-30T11:38:08;606.17;;;579.35;;
16147;SDS011;8179;59.364;18.018;2023-07-30T11:40:35;704.40;;;670.67;;
16147;SDS011;8179;59.364;18.018;2023-07-30T11:43:03;506.27;;;486.58;;
16147;SDS011;8179;59.364;18.018;2023-07-30T11:45:30;571.35;;;545.13;;
16147;SDS011;8179;59.364;18.018;2023-07-30T11:48:05;723.88;;;686.53;;
16147;SDS011;8179;59.364;18.018;2023-07-30T11:50:41;849.70;;;796.28;;
16147;SDS011;8179;59.364;18.018;2023-07-30T11:53:09;988.85;;;926.17;;
16147;SDS011;8179;59.364;18.018;2023-07-30T11:55:37;916.63;;;859.83;;
16147;SDS011;8179;59.364;18.018;2023-07-30T11:58:06;1012.33;;;943.90;;
16147;SDS011;8179;59.364;18.018;2023-07-30T12:00:33;1061.45;;;988.03;;
16147;SDS011;8179;59.364;18.018;2023-07-30T12:03:00;675.58;;;642.22;;
16147;SDS011;8179;59.364;18.018;2023-07-30T12:05:31;1367.40;;;999.90;;
16147;SDS011;8179;59.364;18.018;2023-07-30T12:07:58;1999.90;;;999.90;;
16147;SDS011;8179;59.364;18.018;2023-07-30T12:10:37;1469.65;;;999.90;;
16147;SDS011;8179;59.364;18.018;2023-07-30T12:13:10;996.63;;;931.75;;
16147;SDS011;8179;59.364;18.018;2023-07-30T12:15:37;1304.72;;;999.90;;
16147;SDS011;8179;59.364;18.018;2023-07-30T12:18:04;1371.95;;;999.90;;
16147;SDS011;8179;59.364;18.018;2023-07-30T12:20:30;1255.95;;;999.90;;
16147;SDS011;8179;59.364;18.018;2023-07-30T12:22:57;1312.70;;;999.90;;
16147;SDS011;8179;59.364;18.018;2023-07-30T12:25:23;1099.78;;;999.90;;
16147;SDS011;8179;59.364;18.018;2023-07-30T12:27:51;1146.68;;;999.90;;
16147;SDS011;8179;59.364;18.018;2023-07-30T12:30:18;1174.63;;;999.90;;
16147;SDS011;8179;59.364;18.018;2023-07-30T12:32:44;1146.75;;;999.90;;
16147;SDS011;8179;59.364;18.018;2023-07-30T12:35:11;1357.15;;;999.90;;
16147;SDS011;8179;59.364;18.018;2023-07-30T12:37:37;1510.85;;;999.90;;
16147;SDS011;8179;59.364;18.018;2023-07-30T12:40:04;1217.07;;;999.90;;
16147;SDS011;8179;59.364;18.018;2023-07-30T12:42:31;1999.90;;;999.90;;
16147;SDS011;8179;59.364;18.018;2023-07-30T12:44:59;1715.93;;;999.90;;
16147;SDS011;8179;59.364;18.018;2023-07-30T12:47:26;1999.90;;;999.90;;
16147;SDS011;8179;59.364;18.018;2023-07-30T12:49:52;1383.35;;;999.90;;
16147;SDS011;8179;59.364;18.018;2023-07-30T12:52:19;764.30;;;720.65;;
16147;SDS011;8179;59.364;18.018;2023-07-30T12:54:45;1190.30;;;999.90;;
16147;SDS011;8179;59.364;18.018;2023-07-30T12:57:13;1205.10;;;999.90;;
16147;SDS011;8179;59.364;18.018;2023-07-30T12:59:39;1305.68;;;999.90;;
16147;SDS011;8179;59.364;18.018;2023-07-30T13:02:07;1932.35;;;999.90;;
16147;SDS011;8179;59.364;18.018;2023-07-30T13:04:34;1041.93;;;968.53;;
16147;SDS011;8179;59.364;18.018;2023-07-30T13:07:01;990.33;;;925.40;;
16147;SDS011;8179;59.364;18.018;2023-07-30T13:09:27;1044.30;;;974.45;;
16147;SDS011;8179;59.364;18.018;2023-07-30T13:11:54;1093.78;;;995.28;;
16147;SDS011;8179;59.364;18.018;2023-07-30T13:14:21;1141.93;;;999.90;;
16147;SDS011;8179;59.364;18.018;2023-07-30T13:16:47;1021.25;;;953.60;;
16147;SDS011;8179;59.364;18.018;2023-07-30T13:19:15;1059.88;;;983.47;;
16147;SDS011;8179;59.364;18.018;2023-07-30T13:21:42;1051.25;;;977.28;;
16147;SDS011;8179;59.364;18.018;2023-07-30T13:24:24;949.42;;;892.42;;
16147;SDS011;8179;59.364;18.018;2023-07-30T13:26:54;1003.95;;;940.40;;
16147;SDS011;8179;59.364;18.018;2023-07-30T13:29:21;1082.65;;;994.08;;
16147;SDS011;8179;59.364;18.018;2023-07-30T13:31:47;1013.40;;;947.63;;
16147;SDS011;8179;59.364;18.018;2023-07-30T13:34:14;790.58;;;750.28;;
16147;SDS011;8179;59.364;18.018;2023-07-30T13:36:40;963.92;;;908.33;;
16147;SDS011;8179;59.364;18.018;2023-07-30T13:39:07;1008.97;;;946.58;;
16147;SDS011;8179;59.364;18.018;2023-07-30T13:41:35;996.47;;;935.08;;
16147;SDS011;8179;59.364;18.018;2023-07-30T13:44:01;892.72;;;844.20;;
16147;SDS011;8179;59.364;18.018;2023-07-30T13:46:28;847.90;;;803.15;;
16147;SDS011;8179;59.364;18.018;2023-07-30T13:48:54;893.72;;;845.28;;
16147;SDS011;8179;59.364;18.018;2023-07-30T13:51:21;876.88;;;829.97;;
16147;SDS011;8179;59.364;18.018;2023-07-30T13:53:47;956.60;;;901.70;;